Time;durP1;ratioP1;P1;durP2;ratioP2;P2;SDS_P1;SDS_P2;PMS_P1;PMS_P2;Temp;Humidity;BMP_temperature;BMP_pressure;BME280_temperature;BME280_humidity;BME280_pressure;Samples;Min_cycle;Max_cycle;Signal;HPM_P1;HPM_P2
2023/10/19 00:02:07;;;;;;;25.63;4.38;;;;;;;12.04;100.00;98960.59;5070699;28;20124;-69
2023/10/19 00:04:35;;;;;;;25.15;5.45;;;;;;;12.22;100.00;98961.06;5058251;28;20057;-69
2023/10/19 00:07:04;;;;;;;27.95;5.28;;;;;;;11.96;100.00;98951.50;5051195;28;20045;-69
2023/10/19 00:09:37;;;;;;;19.90;5.45;;;;;;;12.06;100.00;98930.69;5062932;28;20127;-69
2023/10/19 00:12:06;;;;;;;31.10;6.88;;;;;;;12.05;100.00;98936.88;5057112;28;20135;-68
2023/10/19 00:14:32;;;;;;;21.05;4.95;;;;;;;12.11;100.00;98941.69;5070859;28;20049;-69
2023/10/19 00:17:07;;;;;;;20.52;5.43;;;;;;;11.95;100.00;98931.47;5053565;28;20124;-69
2023/10/19 00:19:42;;;;;;;22.95;5.13;;;;;;;11.86;100.00;98921.59;5061312;28;20083;-69
2023/10/19 00:22:09;;;;;;;24.48;5.80;;;;;;;12.09;100.00;98913.88;5049569;28;20049;-69
2023/10/19 00:24:35;;;;;;;19.65;5.70;;;;;;;12.07;100.00;98910.53;5059515;28;20058;-69
2023/10/19 00:27:36;;;;;;;24.15;4.82;;;;;;;12.24;100.00;98901.44;5054744;28;20049;-69
2023/10/19 00:29:59;;;;;;;31.77;6.78;;;;;;;12.28;100.00;98881.91;5046938;28;20415;-69
2023/10/19 00:32:29;;;;;;;33.08;6.95;;;;;;;12.19;100.00;98887.84;5069212;28;20083;-69
2023/10/19 00:34:56;;;;;;;35.10;7.75;;;;;;;12.29;100.00;98887.03;5070297;28;20110;-70
2023/10/19 00:37:26;;;;;;;35.38;7.60;;;;;;;12.15;100.00;98900.34;5052656;28;20048;-69
2023/10/19 00:39:55;;;;;;;34.97;6.32;;;;;;;12.17;100.00;98872.19;5050297;28;20080;-69
2023/10/19 00:42:30;;;;;;;32.30;5.70;;;;;;;12.16;100.00;98865.25;5062580;28;20051;-69
2023/10/19 00:45:05;;;;;;;29.52;6.30;;;;;;;12.21;100.00;98875.44;5050084;28;20071;-69
2023/10/19 00:47:39;;;;;;;27.67;6.45;;;;;;;12.11;100.00;98863.00;5051056;28;20080;-70
2023/10/19 00:50:15;;;;;;;23.17;5.10;;;;;;;12.14;100.00;98854.06;5036692;28;20190;-70
2023/10/19 00:52:49;;;;;;;29.88;5.90;;;;;;;12.10;100.00;98874.44;5050660;28;20045;-69
2023/10/19 00:55:21;;;;;;;24.80;5.78;;;;;;;12.14;100.00;98854.06;5036809;28;20072;-69
2023/10/19 00:57:49;;;;;;;30.65;6.57;;;;;;;12.10;100.00;98842.94;5050629;28;20072;-69
2023/10/19 01:00:30;;;;;;;25.77;6.00;;;;;;;12.18;100.00;98852.88;5055947;28;20048;-69
2023/10/19 01:02:59;;;;;;;26.70;5.88;;;;;;;12.14;100.00;98854.06;5070779;28;20123;-69
2023/10/19 01:05:35;;;;;;;27.58;6.13;;;;;;;12.27;100.00;98851.34;5060960;28;20057;-69
2023/10/19 01:08:19;;;;;;;30.08;7.47;;;;;;;12.21;100.00;98847.41;5050075;28;20053;-69
2023/10/19 01:10:51;;;;;;;23.30;6.22;;;;;;;12.38;100.00;98840.03;5045976;28;20056;-69
2023/10/19 01:13:26;;;;;;;41.78;7.25;;;;;;;12.28;100.00;98825.00;5055790;28;20045;-69
2023/10/19 01:15:54;;;;;;;25.48;6.18;;;;;;;12.19;100.00;98840.59;5062158;28;20545;-69
2023/10/19 01:18:22;;;;;;;35.38;6.65;;;;;;;12.25;100.00;98832.25;5050628;28;20064;-69
2023/10/19 01:20:52;;;;;;;37.58;8.40;;;;;;;12.29;100.00;98829.31;5070733;28;20399;-69
2023/10/19 01:28:42;;;;;;;32.50;6.57;;;;;;;12.18;100.00;98829.25;5063329;28;20052;-69
2023/10/19 01:31:22;;;;;;;24.15;5.90;;;;;;;12.11;100.00;98830.66;5037944;28;20102;-69
2023/10/19 01:33:50;;;;;;;36.80;6.97;;;;;;;12.22;100.00;98812.34;5051690;28;20041;-69
2023/10/19 01:36:26;;;;;;;24.25;5.70;;;;;;;12.33;100.00;98815.00;5062466;28;20056;-69
2023/10/19 01:38:55;;;;;;;26.25;6.47;;;;;;;12.14;100.00;98806.81;5064519;28;20490;-69
2023/10/19 01:41:23;;;;;;;31.55;6.50;;;;;;;12.07;100.00;98805.63;5052217;28;20045;-69
2023/10/19 01:43:54;;;;;;;34.65;6.50;;;;;;;12.19;100.00;98806.50;5053386;28;20045;-69
2023/10/19 01:46:31;;;;;;;25.85;6.85;;;;;;;12.25;100.00;98804.25;5053802;28;20045;-69
2023/10/19 01:48:57;;;;;;;36.70;7.63;;;;;;;12.17;100.00;98817.09;5053780;28;20131;-69
2023/10/19 01:51:26;;;;;;;27.45;5.93;;;;;;;12.26;100.00;98787.53;5056290;28;20053;-69
2023/10/19 01:53:55;;;;;;;36.60;8.00;;;;;;;12.21;100.00;98781.81;5064490;28;20099;-69
2023/10/19 01:56:23;;;;;;;34.58;6.68;;;;;;;12.13;100.00;98778.94;5055599;28;20087;-69
2023/10/19 01:58:54;;;;;;;31.08;5.40;;;;;;;12.25;100.00;98800.78;5066159;28;20080;-69
2023/10/19 02:04:01;;;;;;;26.50;6.57;;;;;;;11.97;100.00;98779.25;5062561;28;20053;-69
2023/10/19 02:09:29;;;;;;;30.60;7.07;;;;;;;12.16;100.00;98776.06;5068708;28;20055;-69
2023/10/19 02:11:56;;;;;;;30.70;6.85;;;;;;;12.15;100.00;98774.41;5070217;28;20048;-69
2023/10/19 02:14:28;;;;;;;41.58;6.72;;;;;;;12.16;100.00;98768.19;5053489;28;20076;-69
2023/10/19 02:16:57;;;;;;;25.13;8.02;;;;;;;12.07;100.00;98759.22;5056870;28;20322;-69
2023/10/19 02:19:26;;;;;;;29.95;6.80;;;;;;;12.06;100.00;98759.38;5042174;28;20053;-69
2023/10/19 02:22:07;;;;;;;25.38;6.78;;;;;;;12.19;100.00;98744.34;5052110;28;20075;-69
2023/10/19 02:24:34;;;;;;;36.65;6.28;;;;;;;12.05;100.00;98758.50;5062614;28;20122;-69
2023/10/19 02:27:01;;;;;;;30.85;6.65;;;;;;;12.00;100.00;98731.78;5071496;28;20048;-69
2023/10/19 02:29:28;;;;;;;27.70;5.22;;;;;;;12.03;100.00;98738.59;5061340;28;20109;-69
2023/10/19 02:31:56;;;;;;;33.63;6.82;;;;;;;12.07;100.00;98740.03;5059014;28;20471;-69
2023/10/19 02:34:24;;;;;;;34.67;6.97;;;;;;;12.17;100.00;98729.69;5072959;28;20044;-69
2023/10/19 02:36:51;;;;;;;30.70;7.25;;;;;;;12.07;100.00;98711.19;5059822;28;20049;-69
2023/10/19 02:39:17;;;;;;;33.97;7.30;;;;;;;12.18;100.00;98724.31;5056796;28;20044;-69
2023/10/19 02:41:47;;;;;;;37.08;8.05;;;;;;;12.19;100.00;98706.81;5052987;28;20059;-69
2023/10/19 02:46:49;;;;;;;25.85;6.22;;;;;;;12.14;100.00;98692.22;5045147;28;20505;-69
2023/10/19 02:49:20;;;;;;;26.90;6.35;;;;;;;12.24;100.00;98694.16;5053732;28;20426;-69
2023/10/19 02:51:49;;;;;;;24.92;6.30;;;;;;;12.17;100.00;98698.22;5065098;28;20053;-69
2023/10/19 02:54:19;;;;;;;30.35;6.07;;;;;;;12.20;100.00;98693.56;5051861;28;20041;-69
2023/10/19 02:56:49;;;;;;;32.95;7.93;;;;;;;12.15;100.00;98707.03;5071436;28;20474;-69
2023/10/19 02:59:21;;;;;;;31.30;7.72;;;;;;;11.99;100.00;98685.56;5069647;28;20136;-69
2023/10/19 03:02:00;;;;;;;26.67;5.95;;;;;;;12.11;100.00;98692.47;5066757;28;20053;-69
2023/10/19 03:04:28;;;;;;;25.95;6.40;;;;;;;12.11;100.00;98682.00;5064726;28;20437;-69
2023/10/19 03:06:58;;;;;;;29.83;6.47;;;;;;;12.11;100.00;98684.63;5058053;28;20068;-69
2023/10/19 03:09:29;;;;;;;32.30;5.78;;;;;;;12.00;100.00;98658.34;5060933;28;20501;-69
2023/10/19 03:12:19;;;;;;;29.60;6.57;;;;;;;11.94;100.00;98654.41;5055320;28;20056;-69
2023/10/19 03:14:48;;;;;;;24.35;6.38;;;;;;;12.11;100.00;98663.63;5072126;28;20482;-69
2023/10/19 03:17:15;;;;;;;25.85;5.68;;;;;;;12.03;100.00;98671.25;5051885;28;20111;-69
2023/10/19 03:19:43;;;;;;;34.03;6.00;;;;;;;12.01;100.00;98635.59;5062870;28;20048;-69
2023/10/19 03:22:11;;;;;;;30.75;7.28;;;;;;;12.08;100.00;98650.75;5058081;28;20132;-70
2023/10/19 03:24:40;;;;;;;36.38;6.57;;;;;;;12.01;100.00;98643.47;5061357;28;20049;-69
2023/10/19 03:27:21;;;;;;;31.42;6.22;;;;;;;12.10;100.00;98638.34;5051303;28;20056;-69
2023/10/19 03:29:56;;;;;;;26.85;6.28;;;;;;;11.99;100.00;98654.06;5062006;28;20049;-69
2023/10/19 03:32:28;;;;;;;35.78;7.65;;;;;;;11.90;100.00;98633.78;5071024;28;20482;-69
2023/10/19 03:34:56;;;;;;;28.92;5.50;;;;;;;12.00;100.00;98645.25;5060872;28;20110;-69
2023/10/19 03:37:25;;;;;;;33.78;7.82;;;;;;;11.93;100.00;98647.53;5051566;28;20141;-69
2023/10/19 03:39:55;;;;;;;31.40;6.15;;;;;;;11.98;100.00;98622.72;5051555;28;20053;-69
2023/10/19 03:42:26;;;;;;;24.80;6.28;;;;;;;11.95;100.00;98635.13;5052032;28;20091;-70
2023/10/19 03:44:57;;;;;;;30.20;6.90;;;;;;;11.91;100.00;98615.31;5065371;28;20041;-69
2023/10/19 03:47:44;;;;;;;33.55;6.05;;;;;;;12.03;100.00;98616.16;5059989;28;20061;-69
2023/10/19 03:50:15;;;;;;;24.45;5.30;;;;;;;12.12;100.00;98604.94;5052157;28;20041;-69
2023/10/19 03:52:42;;;;;;;43.28;6.90;;;;;;;12.18;100.00;98593.13;5064777;28;20135;-69
2023/10/19 03:55:15;;;;;;;36.38;7.47;;;;;;;12.24;100.00;98592.66;5065314;28;20055;-69
2023/10/19 03:57:46;;;;;;;29.48;7.35;;;;;;;12.22;100.00;98586.72;5063117;28;20052;-69
2023/10/19 04:00:18;;;;;;;28.48;6.72;;;;;;;12.19;100.00;98591.38;5066220;28;20457;-69
2023/10/19 04:02:46;;;;;;;25.10;6.47;;;;;;;12.08;100.00;98611.41;5051221;28;20131;-69
2023/10/19 04:05:21;;;;;;;34.30;8.55;;;;;;;11.86;100.00;98591.19;5050671;28;20411;-69
2023/10/19 04:07:55;;;;;;;30.40;6.40;;;;;;;12.17;100.00;98580.16;5054579;28;20052;-69
2023/10/19 04:13:02;;;;;;;35.78;7.00;;;;;;;12.07;100.00;98570.38;5059129;28;20053;-69
2023/10/19 04:15:33;;;;;;;36.78;7.43;;;;;;;12.08;100.00;98577.28;5070098;28;20498;-68
2023/10/19 04:18:01;;;;;;;31.92;7.00;;;;;;;12.09;100.00;98568.50;5062492;28;20053;-69
2023/10/19 04:23:15;;;;;;;37.65;7.18;;;;;;;12.11;100.00;98552.59;5070357;28;20045;-69
2023/10/19 04:25:45;;;;;;;;;;;;;;;12.36;100.00;98567.25;5056498;28;20406;-69
2023/10/19 04:28:20;;;;;;;35.22;7.30;;;;;;;12.03;100.00;98574.19;5059515;28;19966;-69
2023/10/19 04:30:48;;;;;;;30.83;7.55;;;;;;;11.91;100.00;98564.66;5069659;28;20045;-69
2023/10/19 04:33:17;;;;;;;28.52;6.57;;;;;;;11.92;100.00;98555.84;5070812;28;20048;-69
2023/10/19 04:35:44;;;;;;;33.45;8.00;;;;;;;12.07;100.00;98562.50;5066742;28;20491;-69
2023/10/19 04:38:10;;;;;;;34.88;7.97;;;;;;;11.88;100.00;98568.34;5049670;28;20506;-69
2023/10/19 04:40:37;;;;;;;30.15;7.00;;;;;;;11.95;100.00;98551.19;5054787;28;20045;-70
2023/10/19 04:43:05;;;;;;;32.42;6.40;;;;;;;12.06;100.00;98541.66;5050488;28;20044;-68
2023/10/19 04:45:32;;;;;;;32.17;6.95;;;;;;;11.93;100.00;98545.25;5050817;28;20060;-69
2023/10/19 04:47:58;;;;;;;20.77;5.45;;;;;;;11.88;100.00;98557.84;5050541;28;20491;-70
2023/10/19 04:50:25;;;;;;;37.88;7.95;;;;;;;12.00;100.00;98535.09;5058568;28;20070;-69
2023/10/19 04:52:52;;;;;;;25.13;6.40;;;;;;;12.06;100.00;98533.78;5055652;28;20045;-69
2023/10/19 04:55:19;;;;;;;41.17;6.40;;;;;;;11.95;100.00;98529.38;5064130;28;20077;-69
2023/10/19 04:57:46;;;;;;;38.72;7.82;;;;;;;11.99;100.00;98535.19;5050290;28;20439;-69
2023/10/19 05:00:14;;;;;;;27.88;6.03;;;;;;;11.99;100.00;98522.94;5064584;28;20041;-69
2023/10/19 05:02:42;;;;;;;28.52;6.07;;;;;;;11.90;100.00;98528.88;5059522;28;20049;-69
2023/10/19 05:05:09;;;;;;;28.92;7.20;;;;;;;11.90;100.00;98526.25;5052177;28;20048;-69
2023/10/19 05:07:36;;;;;;;34.47;7.13;;;;;;;11.91;100.00;98514.84;5060331;28;20049;-69
2023/10/19 05:10:05;;;;;;;43.47;7.78;;;;;;;12.17;100.00;98509.34;5068465;28;20075;-69
2023/10/19 05:12:32;;;;;;;35.80;7.80;;;;;;;12.22;100.00;98515.06;5050626;28;20055;-69
2023/10/19 05:14:59;;;;;;;34.22;8.10;;;;;;;12.22;100.00;98534.25;5050953;28;20122;-69
2023/10/19 05:17:27;;;;;;;34.85;7.18;;;;;;;12.09;100.00;98499.44;5066894;28;20310;-69
2023/10/19 05:19:54;;;;;;;35.15;6.80;;;;;;;12.08;100.00;98522.22;5054457;28;20053;-69
2023/10/19 05:22:24;;;;;;;38.60;7.88;;;;;;;11.88;100.00;98502.78;5074409;28;20049;-69
2023/10/19 05:24:52;;;;;;;30.65;6.55;;;;;;;11.91;100.00;98526.16;5062006;28;20041;-69
2023/10/19 05:27:19;;;;;;;41.22;8.10;;;;;;;12.04;100.00;98518.19;5068565;28;20497;-69
2023/10/19 05:29:47;;;;;;;33.45;6.53;;;;;;;12.02;100.00;98511.38;5054635;28;20509;-71
2023/10/19 05:32:13;;;;;;;30.50;6.57;;;;;;;11.99;100.00;98498.50;5068660;28;20151;-68
2023/10/19 05:34:40;;;;;;;38.30;7.55;;;;;;;11.85;100.00;98510.06;5062846;28;20048;-68
2023/10/19 05:37:08;;;;;;;35.22;7.15;;;;;;;11.93;100.00;98499.81;5057495;28;20497;-69
2023/10/19 05:39:36;;;;;;;36.28;8.73;;;;;;;12.05;100.00;98514.59;5069446;28;20525;-68
2023/10/19 05:42:04;;;;;;;44.90;7.72;;;;;;;11.99;100.00;98519.47;5063766;28;20479;-69
2023/10/19 05:44:31;;;;;;;30.25;7.45;;;;;;;11.88;100.00;98494.91;5063917;28;20128;-68
2023/10/19 05:46:59;;;;;;;31.08;6.40;;;;;;;11.93;100.00;98499.81;5053957;28;20053;-68
2023/10/19 05:49:28;;;;;;;38.83;9.23;;;;;;;11.95;100.00;98493.50;5054350;28;20131;-69
2023/10/19 05:51:55;;;;;;;30.60;6.70;;;;;;;12.03;100.00;98489.44;5067506;28;20041;-69
2023/10/19 05:54:23;;;;;;;30.98;7.13;;;;;;;12.02;100.00;98512.19;5066716;28;20045;-69
2023/10/19 05:56:51;;;;;;;40.63;7.65;;;;;;;11.85;100.00;98528.41;5073932;28;20041;-68
2023/10/19 05:59:18;;;;;;;43.38;8.15;;;;;;;12.07;100.00;98517.09;5073858;28;20048;-69
2023/10/19 06:01:48;;;;;;;34.25;7.03;;;;;;;12.11;100.00;98498.38;5054738;28;20049;-69
2023/10/19 06:04:15;;;;;;;36.78;6.47;;;;;;;12.18;100.00;98493.44;5066072;28;20151;-69
2023/10/19 06:06:48;;;;;;;33.53;7.60;;;;;;;12.03;100.00;98473.72;5061319;28;20049;-69
2023/10/19 06:09:15;;;;;;;38.72;8.45;;;;;;;12.19;100.00;98482.00;5064008;28;20412;-68
2023/10/19 06:11:42;;;;;;;38.13;8.25;;;;;;;12.24;100.00;98458.03;5055282;28;20055;-68
2023/10/19 06:14:10;;;;;;;36.70;9.32;;;;;;;12.32;100.00;98505.47;5073357;28;20049;-68
2023/10/19 06:16:37;;;;;;;32.17;7.68;;;;;;;12.11;100.00;98487.03;5072769;28;20049;-68
2023/10/19 06:19:05;;;;;;;35.35;8.02;;;;;;;11.95;100.00;98488.25;5059466;28;20402;-69
2023/10/19 06:21:33;;;;;;;39.60;8.98;;;;;;;12.05;100.00;98464.75;5062786;28;20118;-68
2023/10/19 06:24:00;;;;;;;33.58;7.55;;;;;;;11.95;100.00;98458.56;5072311;28;20047;-68
2023/10/19 06:26:28;;;;;;;40.38;8.15;;;;;;;12.03;100.00;98484.19;5060756;28;20076;-68
2023/10/19 06:29:01;;;;;;;45.33;9.68;;;;;;;12.00;100.00;98485.25;5052265;28;20098;-68
2023/10/19 06:31:28;;;;;;;40.63;7.53;;;;;;;12.00;100.00;98479.19;5052874;28;20655;-68
2023/10/19 06:33:57;;;;;;;34.20;7.57;;;;;;;12.15;100.00;98476.19;5065506;28;20056;-69
2023/10/19 06:36:24;;;;;;;35.05;7.78;;;;;;;12.18;100.00;98501.31;5052300;28;20055;-68
2023/10/19 06:38:50;;;;;;;30.27;7.72;;;;;;;12.06;100.00;98479.53;5068179;28;20055;-68
2023/10/19 06:41:18;;;;;;;37.25;8.23;;;;;;;12.10;100.00;98493.25;5054635;28;20422;-68
2023/10/19 06:43:45;;;;;;;40.75;7.45;;;;;;;12.22;100.00;98487.00;5053004;28;20471;-68
2023/10/19 06:46:12;;;;;;;39.70;8.77;;;;;;;12.22;100.00;98465.22;5067874;28;20052;-69
2023/10/19 06:48:39;;;;;;;39.58;8.15;;;;;;;12.05;100.00;98466.53;5058142;28;20139;-69
2023/10/19 06:51:06;;;;;;;34.30;8.43;;;;;;;12.11;100.00;98445.06;5056509;28;20501;-69
2023/10/19 06:53:33;;;;;;;45.03;8.70;;;;;;;12.18;100.00;98471.63;5066533;28;20140;-68
2023/10/19 06:56:01;;;;;;;34.75;8.63;;;;;;;12.08;100.00;98450.56;5052620;28;20049;-69
2023/10/19 06:58:28;;;;;;;36.65;8.77;;;;;;;12.25;100.00;98471.03;5056123;28;20049;-69
2023/10/19 07:01:00;;;;;;;26.45;8.13;;;;;;;12.21;100.00;98453.84;5072844;28;20080;-68
2023/10/19 07:03:28;;;;;;;43.17;9.07;;;;;;;12.26;100.00;98466.63;5054996;28;20053;-68
2023/10/19 07:05:56;;;;;;;46.22;9.10;;;;;;;12.30;100.00;98457.53;5051570;28;20119;-68
2023/10/19 07:08:23;;;;;;;43.35;10.00;;;;;;;12.23;100.00;98428.31;5068232;28;20044;-69
2023/10/19 07:10:49;;;;;;;44.45;9.35;;;;;;;12.05;100.00;98451.63;5072304;28;20055;-68
2023/10/19 07:13:17;;;;;;;37.35;8.23;;;;;;;12.14;100.00;98443.00;5071257;28;20480;-69
2023/10/19 07:15:48;;;;;;;35.85;7.18;;;;;;;12.27;100.00;98453.38;5059145;28;20052;-68
2023/10/19 07:18:15;;;;;;;38.05;9.82;;;;;;;12.36;100.00;98443.94;5061276;28;20128;-69
2023/10/19 07:20:43;;;;;;;49.80;11.52;;;;;;;12.30;100.00;98437.34;5057581;28;20044;-69
2023/10/19 07:23:21;;;;;;;44.72;9.57;;;;;;;12.16;100.00;98442.91;5059442;28;20052;-69
2023/10/19 07:25:52;;;;;;;37.13;8.13;;;;;;;12.37;100.00;98434.25;5065411;28;20037;-68
2023/10/19 07:28:19;;;;;;;42.08;8.75;;;;;;;12.08;100.00;98419.09;5064345;28;20055;-69
2023/10/19 07:30:46;;;;;;;34.97;8.63;;;;;;;12.32;100.00;98430.22;5057388;28;20045;-69
2023/10/19 07:33:17;;;;;;;49.55;10.50;;;;;;;12.27;100.00;98429.75;5064153;28;20045;-68
2023/10/19 07:35:46;;;;;;;48.50;8.98;;;;;;;12.39;100.00;98438.41;5054830;28;20048;-69
2023/10/19 07:38:14;;;;;;;42.35;10.68;;;;;;;12.33;100.00;98417.94;5070911;28;20084;-69
2023/10/19 07:40:41;;;;;;;43.35;9.32;;;;;;;12.39;100.00;98404.28;5058518;28;20059;-68
2023/10/19 07:43:08;;;;;;;37.47;8.75;;;;;;;12.20;100.00;98431.22;5055210;28;20390;-67
2023/10/19 07:45:36;;;;;;;45.83;8.80;;;;;;;12.25;100.00;98410.69;5069919;28;20048;-69
2023/10/19 07:48:07;;;;;;;45.00;9.60;;;;;;;12.22;100.00;98397.00;5054001;28;20045;-68
2023/10/19 07:50:35;;;;;;;43.75;8.57;;;;;;;12.23;100.00;98433.56;5050384;28;20094;-69
2023/10/19 07:53:02;;;;;;;40.70;10.27;;;;;;;12.29;100.00;98388.47;5052012;28;20731;-68
2023/10/19 07:55:34;;;;;;;41.33;8.68;;;;;;;12.32;100.00;98405.75;5069421;28;20044;-68
2023/10/19 07:58:04;;;;;;;48.55;11.23;;;;;;;12.22;100.00;98391.75;5068439;28;20410;-68
2023/10/19 08:00:33;;;;;;;36.90;8.40;;;;;;;12.16;100.00;98364.19;5058394;28;20413;-68
2023/10/19 08:03:00;;;;;;;33.35;8.75;;;;;;;12.05;100.00;98370.31;5065550;28;20048;-69
2023/10/19 08:05:27;;;;;;;46.03;9.77;;;;;;;12.11;100.00;98395.22;5043730;28;20185;-68
2023/10/19 08:07:54;;;;;;;39.85;8.45;;;;;;;12.14;100.00;98398.41;5071525;28;20054;-68
2023/10/19 08:10:21;;;;;;;41.50;9.70;;;;;;;12.16;100.00;98400.94;5069790;28;20477;-68
2023/10/19 08:12:49;;;;;;;42.33;9.32;;;;;;;12.19;100.00;98366.59;5058076;28;20053;-68
2023/10/19 08:15:17;;;;;;;43.33;11.68;;;;;;;12.19;100.00;98377.06;5068301;28;20076;-67
2023/10/19 08:17:53;;;;;;;57.97;10.98;;;;;;;12.17;100.00;98372.94;5064878;28;20049;-69
2023/10/19 08:20:24;;;;;;;44.80;10.90;;;;;;;12.19;100.00;98363.13;5069129;28;20148;-68
2023/10/19 08:22:56;;;;;;;51.63;11.27;;;;;;;11.95;100.00;98365.00;5070603;28;20048;-69
2023/10/19 08:25:27;;;;;;;53.58;11.35;;;;;;;12.18;100.00;98362.28;5054479;28;20523;-68
2023/10/19 08:28:09;;;;;;;42.85;10.80;;;;;;;12.05;100.00;98353.75;5050804;28;20089;-69
2023/10/19 08:30:37;;;;;;;37.60;9.13;;;;;;;12.06;100.00;98340.53;5050291;28;20045;-68
2023/10/19 08:33:06;;;;;;;43.70;11.68;;;;;;;12.15;100.00;98336.31;5059985;28;20443;-68
2023/10/19 08:35:35;;;;;;;50.67;12.15;;;;;;;11.95;100.00;98364.16;5056452;28;20159;-68
2023/10/19 08:38:09;;;;;;;43.92;11.30;;;;;;;12.05;100.00;98338.03;5070755;28;20146;-68
2023/10/19 08:40:37;;;;;;;50.30;10.38;;;;;;;11.89;100.00;98354.16;5054776;28;20048;-68
2023/10/19 08:43:04;;;;;;;40.95;9.43;;;;;;;11.65;100.00;98368.28;5064502;28;20052;-69
2023/10/19 08:45:34;;;;;;;48.90;9.88;;;;;;;11.70;100.00;98346.94;5050533;28;20051;-68
2023/10/19 08:48:02;;;;;;;48.85;10.60;;;;;;;11.49;100.00;98349.47;5050625;28;20045;-68
2023/10/19 08:50:37;;;;;;;45.92;10.75;;;;;;;11.50;100.00;98344.09;5058709;28;20048;-68
2023/10/19 08:53:08;;;;;;;48.47;11.85;;;;;;;11.53;100.00;98330.78;5053150;28;20057;-68
2023/10/19 08:55:35;;;;;;;48.95;11.43;;;;;;;11.33;100.00;98358.56;5059178;28;20052;-68
2023/10/19 08:58:17;;;;;;;45.40;10.82;;;;;;;11.51;100.00;98365.91;5053551;28;20048;-68
2023/10/19 09:00:56;;;;;;;46.78;10.80;;;;;;;11.30;100.00;98368.44;5051286;28;20135;-68
2023/10/19 09:03:24;;;;;;;50.03;11.18;;;;;;;11.30;100.00;98360.59;5053492;28;20459;-69
2023/10/19 09:05:54;;;;;;;37.20;10.70;;;;;;;11.22;100.00;98350.69;5060728;28;20471;-68
2023/10/19 09:08:22;;;;;;;39.08;11.43;;;;;;;11.16;100.00;98312.72;5066499;28;20110;-68
2023/10/19 09:10:51;;;;;;;51.45;10.88;;;;;;;11.38;100.00;98324.97;5061943;28;20063;-68
2023/10/19 09:13:18;;;;;;;49.03;10.73;;;;;;;11.29;100.00;98341.41;5049909;28;20512;-68
2023/10/19 09:15:53;;;;;;;52.35;10.98;;;;;;;11.18;100.00;98344.88;5057482;28;20049;-68
2023/10/19 09:18:23;;;;;;;35.03;9.10;;;;;;;11.12;100.00;98331.41;5055644;28;20088;-68
2023/10/19 09:20:52;;;;;;;43.35;10.57;;;;;;;11.13;100.00;98330.47;5057277;28;20502;-68
2023/10/19 09:23:25;;;;;;;50.83;11.35;;;;;;;11.07;100.00;98323.09;5069716;28;20052;-68
2023/10/19 09:25:52;;;;;;;48.55;10.95;;;;;;;11.07;100.00;98313.44;5042914;28;20076;-67
2023/10/19 09:28:21;;;;;;;50.30;11.43;;;;;;;11.06;100.00;98348.44;5058124;28;20479;-68
2023/10/19 09:30:49;;;;;;;51.05;10.63;;;;;;;11.23;100.00;98299.16;5050841;28;20049;-68
2023/10/19 09:33:17;;;;;;;42.45;11.07;;;;;;;11.27;100.00;98335.44;5050265;28;20384;-68
2023/10/19 09:35:48;;;;;;;47.50;11.02;;;;;;;11.29;100.00;98309.97;5064682;28;20049;-68
2023/10/19 09:38:27;;;;;;;49.35;9.70;;;;;;;11.36;100.00;98341.75;5050167;28;20063;-68
2023/10/19 09:40:55;;;;;;;44.03;11.10;;;;;;;11.32;100.00;98320.22;5049824;28;20529;-68
2023/10/19 09:43:38;;;;;;;42.30;9.95;;;;;;;11.53;100.00;98312.44;5035794;28;20482;-68
2023/10/19 09:46:11;;;;;;;39.55;10.02;;;;;;;11.27;100.00;98313.66;5049773;28;20045;-68
2023/10/19 09:48:45;;;;;;;56.78;12.73;;;;;;;11.44;100.00;98317.56;5050447;28;20076;-68
2023/10/19 09:51:13;;;;;;;45.60;10.57;;;;;;;11.49;100.00;98311.00;5049639;28;20418;-68
2023/10/19 09:53:47;;;;;;;48.00;10.07;;;;;;;11.40;100.00;98309.97;5056913;28;20055;-69
2023/10/19 09:56:51;;;;;;;43.45;11.73;;;;;;;11.54;100.00;98319.34;5055773;28;20051;-69
2023/10/19 09:59:32;;;;;;;50.00;11.75;;;;;;;11.39;100.00;98324.00;5060849;28;20049;-68
2023/10/19 10:02:10;;;;;;;54.15;13.77;;;;;;;11.56;100.00;98313.97;5054361;28;20049;-68
2023/10/19 10:04:38;;;;;;;53.80;13.00;;;;;;;11.49;100.00;98303.16;5053481;28;20049;-68
2023/10/19 10:07:06;;;;;;;54.03;11.63;;;;;;;11.68;100.00;98294.63;5053458;28;20044;-68
2023/10/19 10:09:40;;;;;;;56.13;10.98;;;;;;;11.49;100.00;98287.44;5053633;28;20135;-68
2023/10/19 10:12:18;;;;;;;49.15;11.35;;;;;;;11.62;100.00;98300.38;5058437;28;20049;-68
2023/10/19 10:15:37;;;;;;;51.25;11.63;;;;;;;11.64;100.00;98287.97;5060561;28;20055;-68
2023/10/19 10:18:13;;;;;;;35.72;10.88;;;;;;;11.45;100.00;98300.91;5011241;28;20529;-68
2023/10/19 10:20:40;;;;;;;42.10;11.23;;;;;;;11.53;100.00;98315.06;5059125;28;20496;-69
2023/10/19 10:23:21;;;;;;;37.85;10.20;;;;;;;11.67;100.00;98281.63;5073191;28;20130;-68
2023/10/19 10:25:49;;;;;;;36.22;9.02;;;;;;;11.68;100.00;98268.41;5058915;28;20041;-68
2023/10/19 10:28:16;;;;;;;43.30;10.98;;;;;;;11.78;100.00;98279.81;5061331;28;20375;-69
2023/10/19 10:31:08;;;;;;;51.60;11.13;;;;;;;11.91;100.00;98277.03;5053172;28;20049;-68
2023/10/19 10:33:39;;;;;;;45.58;13.18;;;;;;;11.86;100.00;98257.38;5064741;28;20125;-68
2023/10/19 10:36:06;;;;;;;43.85;10.75;;;;;;;11.65;100.00;98283.56;5045992;28;20298;-68
2023/10/19 10:38:35;;;;;;;49.53;10.95;;;;;;;11.61;100.00;98308.34;5072881;28;20055;-68
2023/10/19 10:41:02;;;;;;;39.83;10.85;;;;;;;11.66;100.00;98293.09;5058726;28;20475;-68
2023/10/19 10:43:30;;;;;;;45.20;11.20;;;;;;;11.83;100.00;98283.84;5072805;28;20072;-68
2023/10/19 10:46:10;;;;;;;45.22;11.02;;;;;;;11.80;100.00;98281.50;5059216;28;20439;-68
2023/10/19 10:48:41;;;;;;;42.72;10.70;;;;;;;11.77;100.00;98290.41;5053128;28;20045;-68
2023/10/19 10:51:21;;;;;;;61.08;14.20;;;;;;;11.71;100.00;98272.59;5052118;28;20053;-68
2023/10/19 10:53:52;;;;;;;50.53;13.55;;;;;;;11.75;100.00;98274.00;5064431;28;20059;-68
2023/10/19 10:56:20;;;;;;;53.72;12.55;;;;;;;11.70;100.00;98284.84;5064669;28;20139;-68
2023/10/19 10:58:47;;;;;;;45.65;11.77;;;;;;;11.54;100.00;98287.03;5052997;28;20057;-68
2023/10/19 11:01:14;;;;;;;49.67;11.57;;;;;;;11.68;100.00;98257.09;5062722;28;20487;-68
2023/10/19 11:03:42;;;;;;;40.50;12.02;;;;;;;11.47;100.00;98275.41;5057550;28;20412;-68
2023/10/19 11:06:10;;;;;;;61.53;11.45;;;;;;;11.53;100.00;98259.19;5053417;28;20483;-68
2023/10/19 11:08:38;;;;;;;50.83;12.30;;;;;;;11.67;100.00;98284.25;5056161;28;20052;-68
2023/10/19 11:11:12;;;;;;;53.30;12.40;;;;;;;11.62;100.00;98262.84;5061377;28;20135;-68
2023/10/19 11:13:39;;;;;;;50.70;11.43;;;;;;;11.52;100.00;98265.38;5065372;28;20498;-68
2023/10/19 11:16:07;;;;;;;48.90;12.55;;;;;;;11.53;100.00;98260.00;5041399;28;20128;-68
2023/10/19 11:18:45;;;;;;;52.45;14.90;;;;;;;11.47;100.00;98249.19;5050301;28;20447;-68
2023/10/19 11:21:14;;;;;;;48.53;11.65;;;;;;;11.27;100.00;98243.78;5062281;28;20076;-68
2023/10/19 11:23:48;;;;;;;45.85;12.20;;;;;;;11.14;100.00;98274.53;5065826;28;20051;-69
2023/10/19 11:26:21;;;;;;;41.88;11.43;;;;;;;11.21;100.00;98260.00;5052224;28;20071;-69
2023/10/19 11:28:57;;;;;;;53.95;13.60;;;;;;;11.26;100.00;98244.75;5054412;28;20049;-69
2023/10/19 11:31:24;;;;;;;51.47;12.73;;;;;;;11.25;100.00;98234.38;5062562;28;20051;-69
2023/10/19 11:33:53;;;;;;;59.15;12.68;;;;;;;11.40;100.00;98265.41;5065394;28;20082;-69
2023/10/19 11:36:22;;;;;;;74.72;13.77;;;;;;;11.24;100.00;98251.88;5051121;28;20144;-68
2023/10/19 11:38:51;;;;;;;51.80;11.95;;;;;;;11.31;100.00;98254.84;5066580;28;20052;-68
2023/10/19 11:41:18;;;;;;;69.18;14.60;;;;;;;11.27;100.00;98285.69;5054573;28;20044;-69
2023/10/19 11:43:47;;;;;;;55.38;13.38;;;;;;;11.23;100.00;98268.56;5061003;28;20084;-69
2023/10/19 11:46:15;;;;;;;43.58;13.18;;;;;;;11.14;100.00;98272.72;5063395;28;20055;-69
2023/10/19 11:48:42;;;;;;;65.57;17.13;;;;;;;11.10;100.00;98268.69;5065360;28;20454;-69